createdAt,value
2018-09-28T00:01:16.160Z,6.97
2018-09-28T00:03:44.355Z,6.93
2018-09-28T00:06:12.562Z,6.50
2018-09-28T00:08:40.743Z,8.13
2018-09-28T00:11:08.879Z,4.73
2018-09-28T00:13:36.989Z,5.00
2018-09-28T00:16:05.150Z,6.67
2018-09-28T00:18:33.270Z,6.63
2018-09-28T00:21:01.423Z,7.10
2018-09-28T00:23:29.539Z,9.30
2018-09-28T00:25:57.773Z,6.20
2018-09-28T00:28:25.834Z,5.63
2018-09-28T00:30:53.983Z,6.20
2018-09-28T00:33:22.144Z,6.43
2018-09-28T00:35:50.342Z,4.43
2018-09-28T00:38:18.561Z,5.87
2018-09-28T00:40:46.722Z,9.57
2018-09-28T00:43:14.841Z,8.83
2018-09-28T00:45:42.956Z,5.57
2018-09-28T00:48:11.058Z,6.43
2018-09-28T00:50:39.185Z,5.73
2018-09-28T00:53:07.318Z,5.13
2018-09-28T00:55:35.619Z,4.83
2018-09-28T00:58:03.758Z,5.63
2018-09-28T01:00:31.885Z,6.57
2018-09-28T01:03:00.039Z,4.47
2018-09-28T01:05:28.131Z,4.63
2018-09-28T01:07:56.334Z,5.47
2018-09-28T01:10:24.485Z,7.43
2018-09-28T01:12:52.606Z,6.40
2018-09-28T01:15:20.820Z,7.30
2018-09-28T01:17:49.040Z,5.60
2018-09-28T01:20:17.137Z,5.77
2018-09-28T01:22:45.242Z,6.47
2018-09-28T01:25:13.410Z,4.93
2018-09-28T01:27:41.531Z,6.93
2018-09-28T01:30:09.763Z,6.43
2018-09-28T01:32:37.933Z,7.30
2018-09-28T01:35:06.059Z,6.43
2018-09-28T01:37:34.186Z,10.13
2018-09-28T01:40:02.301Z,8.97
2018-09-28T01:42:30.414Z,7.63
2018-09-28T01:44:58.541Z,7.77
2018-09-28T01:47:26.664Z,6.03
2018-09-28T01:49:55.171Z,5.27
2018-09-28T01:52:23.313Z,5.73
2018-09-28T01:54:51.454Z,6.50
2018-09-28T01:57:19.567Z,7.57
2018-09-28T01:59:47.665Z,7.57
2018-09-28T02:02:15.774Z,5.20
2018-09-28T02:04:43.878Z,6.07
2018-09-28T02:07:11.997Z,5.93
2018-09-28T02:09:40.107Z,6.47
2018-09-28T02:12:08.243Z,5.17
2018-09-28T02:14:36.330Z,6.10
2018-09-28T02:17:04.506Z,6.97
2018-09-28T02:19:32.665Z,5.63
2018-09-28T02:22:00.917Z,5.97
2018-09-28T02:24:29.018Z,5.60
2018-09-28T02:26:57.139Z,6.30
2018-09-28T02:29:25.355Z,5.90
2018-09-28T02:31:53.550Z,8.40
2018-09-28T02:34:21.698Z,10.27
2018-09-28T02:36:49.815Z,7.87
2018-09-28T02:39:17.918Z,5.57
2018-09-28T02:41:46.050Z,5.70
2018-09-28T02:44:14.195Z,5.67
2018-09-28T02:46:42.314Z,5.23
2018-09-28T02:49:10.435Z,6.50
2018-09-28T02:51:38.541Z,5.93
2018-09-28T02:54:06.654Z,8.37
2018-09-28T02:56:34.763Z,6.07
2018-09-28T02:59:02.894Z,7.07
2018-09-28T03:01:31.031Z,6.73
2018-09-28T03:03:59.160Z,7.10
2018-09-28T03:06:27.304Z,6.87
2018-09-28T03:08:55.397Z,6.33
2018-09-28T03:11:23.518Z,5.30
2018-09-28T03:13:51.658Z,7.63
2018-09-28T03:16:19.799Z,7.37
2018-09-28T03:18:47.926Z,8.53
2018-09-28T03:21:16.087Z,8.50
2018-09-28T03:23:44.191Z,7.43
2018-09-28T03:26:12.343Z,7.80
2018-09-28T03:28:40.475Z,6.63
2018-09-28T03:31:08.606Z,7.33
2018-09-28T03:33:36.812Z,5.83
2018-09-28T03:36:04.929Z,7.77
2018-09-28T03:38:33.336Z,7.47
2018-09-28T03:41:01.465Z,5.87
2018-09-28T03:43:29.714Z,6.43
2018-09-28T03:45:57.915Z,5.93
2018-09-28T03:48:26.201Z,8.03
2018-09-28T03:50:54.328Z,6.27
2018-09-28T03:53:22.452Z,6.77
2018-09-28T03:55:50.566Z,7.37
2018-09-28T03:58:18.689Z,8.00
2018-09-28T04:00:46.818Z,6.70
2018-09-28T04:03:14.943Z,7.53
2018-09-28T04:05:43.039Z,7.63
2018-09-28T04:08:11.162Z,8.13
2018-09-28T04:10:39.269Z,5.63
2018-09-28T04:13:07.418Z,6.67
2018-09-28T04:15:35.535Z,6.20
2018-09-28T04:18:03.654Z,7.10
2018-09-28T04:20:31.752Z,7.23
2018-09-28T04:22:59.887Z,7.03
2018-09-28T04:25:28.025Z,7.00
2018-09-28T04:27:56.171Z,8.53
2018-09-28T04:30:24.284Z,6.93
2018-09-28T04:32:52.406Z,6.67
2018-09-28T04:35:20.526Z,6.07
2018-09-28T04:37:48.652Z,8.70
2018-09-28T04:40:16.749Z,6.57
2018-09-28T04:42:44.884Z,6.73
2018-09-28T04:45:13.010Z,9.50
2018-09-28T04:47:41.110Z,11.53
2018-09-28T04:50:09.211Z,8.80
2018-09-28T04:52:37.352Z,9.77
2018-09-28T04:55:05.484Z,7.17
2018-09-28T04:57:33.597Z,9.53
2018-09-28T05:00:01.739Z,12.73
2018-09-28T05:02:29.849Z,7.93
2018-09-28T05:04:57.966Z,9.37
2018-09-28T05:07:26.115Z,8.30
2018-09-28T05:09:54.271Z,11.67
2018-09-28T05:12:22.409Z,8.80
2018-09-28T05:14:50.513Z,8.53
2018-09-28T05:17:18.647Z,8.80
2018-09-28T05:19:46.760Z,8.90
2018-09-28T05:22:14.892Z,8.80
2018-09-28T05:24:43.026Z,8.77
2018-09-28T05:27:11.239Z,10.23
2018-09-28T05:29:39.343Z,9.43
2018-09-28T05:32:07.527Z,10.27
2018-09-28T05:34:35.586Z,8.80
2018-09-28T05:37:04.027Z,12.47
2018-09-28T05:39:32.380Z,10.20
2018-09-28T05:42:00.422Z,11.17
2018-09-28T05:44:28.538Z,8.77
2018-09-28T05:46:56.650Z,11.43
2018-09-28T05:49:24.758Z,9.30
2018-09-28T05:51:52.866Z,9.10
2018-09-28T05:54:20.969Z,12.93
2018-09-28T05:56:49.087Z,10.60
2018-09-28T05:59:22.386Z,10.63
2018-09-28T06:01:55.837Z,10.17
2018-09-28T06:05:30.763Z,8.20
2018-09-28T06:07:58.923Z,9.93
2018-09-28T06:10:27.027Z,9.90
2018-09-28T06:12:55.149Z,11.23
2018-09-28T06:15:23.350Z,11.80
2018-09-28T06:17:51.473Z,11.93
2018-09-28T06:20:19.585Z,9.73
2018-09-28T06:22:47.717Z,10.37
2018-09-28T06:25:15.830Z,8.83
2018-09-28T06:27:43.932Z,11.60
2018-09-28T06:30:12.067Z,12.40
2018-09-28T06:32:40.170Z,8.87
2018-09-28T06:35:08.281Z,7.77
2018-09-28T06:37:36.438Z,10.17
2018-09-28T06:40:04.542Z,8.63
2018-09-28T06:42:32.723Z,9.00
2018-09-28T06:45:00.911Z,10.40
2018-09-28T06:47:29.026Z,8.33
2018-09-28T06:49:57.159Z,10.83
2018-09-28T06:52:25.254Z,9.90
2018-09-28T06:54:53.365Z,9.07
2018-09-28T06:57:21.488Z,8.03
2018-09-28T06:59:49.655Z,10.90
2018-09-28T07:02:17.830Z,13.33
2018-09-28T07:04:46.001Z,10.03
2018-09-28T07:07:14.258Z,10.00
2018-09-28T07:09:42.434Z,7.60
2018-09-28T07:12:10.625Z,7.83
2018-09-28T07:14:38.691Z,9.40
2018-09-28T07:17:06.814Z,7.77
2018-09-28T07:19:34.925Z,7.20
2018-09-28T07:22:03.189Z,7.53
2018-09-28T07:24:31.303Z,10.83
2018-09-28T07:26:59.447Z,9.43
2018-09-28T07:29:27.562Z,9.73
2018-09-28T07:31:55.671Z,8.03
2018-09-28T07:34:23.828Z,9.13
2018-09-28T07:36:51.996Z,9.53
2018-09-28T07:39:20.069Z,8.80
2018-09-28T07:41:48.270Z,10.00
2018-09-28T07:44:16.382Z,7.07
2018-09-28T07:46:44.494Z,8.50
2018-09-28T07:49:12.647Z,9.13
2018-09-28T07:51:40.746Z,8.33
2018-09-28T07:54:08.898Z,9.93
2018-09-28T07:56:37.001Z,11.77
2018-09-28T07:59:05.202Z,9.03
2018-09-28T08:01:33.315Z,9.00
2018-09-28T08:04:01.505Z,13.43
2018-09-28T08:06:29.573Z,11.73
2018-09-28T08:08:57.672Z,11.80
2018-09-28T08:11:25.875Z,11.90
2018-09-28T08:13:54.009Z,11.57
2018-09-28T08:16:22.122Z,10.47
2018-09-28T08:18:50.239Z,11.93
2018-09-28T08:21:18.388Z,13.63
2018-09-28T08:23:46.661Z,15.10
2018-09-28T08:26:14.810Z,14.07
2018-09-28T08:28:42.922Z,14.23
2018-09-28T08:31:11.050Z,14.40
2018-09-28T08:33:39.166Z,12.97
2018-09-28T08:36:07.371Z,15.27
2018-09-28T08:38:36.280Z,16.50
2018-09-28T08:41:04.403Z,15.57
2018-09-28T08:43:32.572Z,19.77
2018-09-28T08:46:00.650Z,17.13
2018-09-28T08:48:28.764Z,17.07
2018-09-28T08:50:57.001Z,17.80
2018-09-28T08:53:25.104Z,17.20
2018-09-28T08:55:53.249Z,18.77
2018-09-28T08:58:21.502Z,23.90
2018-09-28T09:00:49.633Z,19.37
2018-09-28T09:03:17.955Z,23.53
2018-09-28T09:05:46.062Z,22.30
2018-09-28T09:08:14.174Z,23.43
2018-09-28T09:10:42.314Z,25.10
2018-09-28T09:13:10.537Z,25.83
2018-09-28T09:15:38.672Z,26.07
2018-09-28T09:18:06.943Z,35.03
2018-09-28T09:20:34.914Z,30.87
2018-09-28T09:23:03.062Z,32.90
2018-09-28T09:25:31.202Z,35.43
2018-09-28T09:27:59.427Z,30.47
2018-09-28T09:30:27.563Z,34.60
2018-09-28T09:32:55.840Z,34.33
2018-09-28T09:35:24.290Z,43.47
2018-09-28T09:37:52.481Z,46.30
2018-09-28T09:40:20.634Z,59.43
2018-09-28T09:42:48.994Z,57.63
2018-09-28T09:45:17.102Z,54.57
2018-09-28T09:47:45.250Z,55.37
2018-09-28T09:50:13.398Z,57.80
2018-09-28T09:52:41.529Z,58.07
2018-09-28T09:55:09.684Z,55.00
2018-09-28T09:57:37.815Z,59.53
2018-09-28T10:00:06.195Z,59.80
2018-09-28T10:02:39.838Z,63.13
2018-09-28T10:05:08.000Z,68.67
2018-09-28T10:07:36.182Z,68.50
2018-09-28T10:10:04.343Z,70.47
2018-09-28T10:12:32.617Z,70.03
2018-09-28T10:15:00.657Z,70.60
2018-09-28T10:17:28.786Z,69.30
2018-09-28T10:19:56.931Z,66.67
2018-09-28T10:22:25.052Z,69.00
2018-09-28T10:24:53.182Z,68.47
2018-09-28T10:27:21.419Z,72.10
2018-09-28T10:29:49.519Z,66.93
2018-09-28T10:32:17.670Z,67.60
2018-09-28T10:34:45.826Z,65.77
2018-09-28T10:37:13.988Z,64.97
2018-09-28T10:39:42.163Z,63.53
2018-09-28T10:42:10.253Z,65.93
2018-09-28T10:44:38.396Z,66.40
2018-09-28T10:47:06.606Z,60.97
2018-09-28T10:49:34.905Z,61.43
2018-09-28T10:52:03.155Z,67.33
2018-09-28T10:54:31.195Z,64.23
2018-09-28T10:56:59.328Z,65.13
2018-09-28T10:59:27.466Z,67.40
2018-09-28T11:01:55.622Z,68.00
2018-09-28T11:04:23.781Z,68.63
2018-09-28T11:06:51.837Z,73.33
2018-09-28T11:09:20.057Z,71.57
2018-09-28T11:11:48.138Z,74.57
2018-09-28T11:14:16.255Z,71.57
2018-09-28T11:16:44.402Z,79.13
2018-09-28T11:19:12.551Z,82.27
2018-09-28T11:21:40.763Z,75.97
2018-09-28T11:24:08.894Z,79.23
2018-09-28T11:26:37.030Z,71.87
2018-09-28T11:29:05.211Z,74.37
2018-09-28T11:31:33.530Z,72.23
2018-09-28T11:34:01.659Z,72.77
2018-09-28T11:36:29.823Z,73.47
2018-09-28T11:38:58.027Z,69.47
2018-09-28T11:41:26.175Z,66.57
2018-09-28T11:43:54.341Z,66.77
2018-09-28T11:46:22.498Z,69.43
2018-09-28T11:48:50.621Z,68.20
2018-09-28T11:51:18.817Z,68.17
2018-09-28T11:53:46.996Z,62.93
2018-09-28T11:56:15.145Z,71.67
2018-09-28T11:58:43.423Z,56.37
2018-09-28T12:01:11.538Z,57.37
2018-09-28T12:03:39.790Z,57.37
2018-09-28T12:06:07.961Z,56.57
2018-09-28T12:08:36.327Z,57.53
2018-09-28T12:11:04.506Z,54.23
2018-09-28T12:13:32.669Z,52.83
2018-09-28T12:16:00.703Z,52.47
2018-09-28T12:18:28.842Z,51.90
2018-09-28T12:20:56.982Z,54.80
2018-09-28T12:23:25.119Z,49.00
2018-09-28T12:25:53.245Z,46.60
2018-09-28T12:28:21.368Z,38.77
2018-09-28T12:30:49.534Z,38.80
2018-09-28T12:33:17.794Z,36.80
2018-09-28T12:35:45.894Z,34.63
2018-09-28T12:38:14.021Z,33.53
2018-09-28T12:40:42.145Z,32.30
2018-09-28T12:43:10.326Z,34.00
2018-09-28T12:45:38.589Z,36.40
2018-09-28T12:48:06.660Z,31.63
2018-09-28T12:50:34.803Z,32.83
2018-09-28T12:53:02.909Z,28.03
2018-09-28T12:55:31.007Z,34.67
2018-09-28T12:57:59.150Z,27.77
2018-09-28T13:00:27.387Z,27.77
2018-09-28T13:02:55.416Z,30.77
2018-09-28T13:05:23.581Z,27.17
2018-09-28T13:07:51.731Z,25.40
2018-09-28T13:10:19.827Z,31.33
2018-09-28T13:12:48.043Z,28.80
2018-09-28T13:15:16.286Z,24.30
2018-09-28T13:17:44.338Z,30.00
2018-09-28T13:20:12.526Z,26.67
2018-09-28T13:22:40.642Z,20.20
2018-09-28T13:25:08.730Z,25.20
2018-09-28T13:27:36.866Z,22.77
2018-09-28T13:30:05.055Z,21.37
2018-09-28T13:32:33.191Z,21.03
2018-09-28T13:35:01.310Z,19.67
2018-09-28T13:37:29.437Z,16.20
2018-09-28T13:39:57.542Z,19.73
2018-09-28T13:42:25.762Z,18.57
2018-09-28T13:44:53.865Z,16.43
2018-09-28T13:47:22.002Z,19.20
2018-09-28T13:49:50.174Z,17.07
2018-09-28T13:52:18.425Z,18.63
2018-09-28T13:54:46.670Z,16.90
2018-09-28T13:57:14.796Z,18.30
2018-09-28T13:59:42.948Z,18.73
2018-09-28T14:02:11.126Z,14.23
2018-09-28T14:04:39.209Z,14.77
2018-09-28T14:07:07.440Z,12.43
2018-09-28T14:09:35.438Z,11.70
2018-09-28T14:12:03.567Z,11.03
2018-09-28T14:14:31.857Z,7.47
2018-09-28T14:17:00.221Z,10.83
2018-09-28T14:19:28.687Z,5.77
2018-09-28T14:21:56.870Z,7.60
2018-09-28T14:24:25.198Z,7.43
2018-09-28T14:26:53.331Z,8.03
2018-09-28T14:29:21.734Z,11.77
2018-09-28T14:31:49.938Z,6.70
2018-09-28T14:34:18.302Z,9.37
2018-09-28T14:36:46.499Z,7.97
2018-09-28T14:39:14.704Z,8.13
2018-09-28T14:41:42.868Z,10.17
2018-09-28T14:44:11.094Z,9.37
2018-09-28T14:46:46.304Z,8.03
2018-09-28T14:49:15.115Z,10.43
2018-09-28T14:51:43.191Z,6.57
2018-09-28T14:54:11.710Z,9.10
2018-09-28T14:56:39.831Z,13.60
2018-09-28T14:59:07.975Z,11.93
2018-09-28T15:01:36.147Z,9.17
2018-09-28T15:04:04.325Z,8.60
2018-09-28T15:06:32.526Z,6.03
2018-09-28T15:09:00.648Z,11.77
2018-09-28T15:11:28.814Z,8.67
2018-09-28T15:13:56.936Z,10.50
2018-09-28T15:16:25.174Z,13.67
2018-09-28T15:18:53.286Z,13.23
2018-09-28T15:21:21.463Z,10.23
2018-09-28T15:23:49.674Z,15.63
2018-09-28T15:26:17.844Z,10.93
2018-09-28T15:28:45.970Z,13.07
2018-09-28T15:31:14.904Z,10.80
2018-09-28T15:33:43.322Z,9.00
2018-09-28T15:36:11.434Z,12.07
2018-09-28T15:38:39.664Z,9.93
2018-09-28T15:41:14.341Z,11.70
2018-09-28T15:43:48.591Z,8.47
2018-09-28T15:46:16.717Z,11.80
2018-09-28T15:48:45.109Z,12.43
2018-09-28T15:51:13.253Z,10.97
2018-09-28T15:53:41.454Z,11.17
2018-09-28T15:56:10.431Z,11.17
2018-09-28T15:58:38.797Z,12.30
2018-09-28T16:01:07.273Z,8.47
2018-09-28T16:03:35.436Z,13.10
2018-09-28T16:06:03.755Z,11.17
2018-09-28T16:08:31.909Z,9.70
2018-09-28T16:11:00.220Z,11.03
2018-09-28T16:13:28.487Z,13.17
2018-09-28T16:15:56.763Z,15.20
2018-09-28T16:18:24.928Z,11.87
2018-09-28T16:20:53.990Z,11.53
2018-09-28T16:23:22.115Z,10.47
2018-09-28T16:25:50.259Z,12.63
2018-09-28T16:28:18.406Z,8.07
2018-09-28T16:30:46.619Z,11.60
2018-09-28T16:33:14.793Z,9.93
2018-09-28T16:35:43.040Z,9.80
2018-09-28T16:38:11.212Z,10.33
2018-09-28T16:40:39.572Z,13.70
2018-09-28T16:43:07.955Z,10.53
2018-09-28T16:45:36.139Z,9.53
2018-09-28T16:48:04.576Z,11.83
2018-09-28T16:50:33.183Z,13.57
2018-09-28T16:53:01.426Z,9.57
2018-09-28T16:55:29.631Z,14.10
2018-09-28T16:57:57.823Z,11.63
2018-09-28T17:00:26.001Z,13.17
2018-09-28T17:02:54.208Z,18.83
2018-09-28T17:05:22.484Z,8.57
2018-09-28T17:07:50.657Z,14.63
2018-09-28T17:10:18.933Z,20.33
2018-09-28T17:12:47.096Z,19.20
2018-09-28T17:15:15.290Z,11.00
2018-09-28T17:17:43.491Z,17.90
2018-09-28T17:20:11.718Z,19.87
2018-09-28T17:22:39.898Z,15.33
2018-09-28T17:25:08.235Z,18.93
2018-09-28T17:27:36.396Z,29.33
2018-09-28T17:30:04.622Z,22.13
2018-09-28T17:32:32.827Z,20.00
2018-09-28T17:35:01.100Z,24.43
2018-09-28T17:37:29.211Z,20.90
2018-09-28T17:39:57.493Z,16.70
2018-09-28T17:42:25.815Z,16.80
2018-09-28T17:44:54.163Z,14.73
2018-09-28T17:47:22.499Z,15.30
2018-09-28T17:49:50.689Z,17.87
2018-09-28T17:52:18.924Z,15.40
2018-09-28T17:54:47.176Z,19.90
2018-09-28T17:57:15.729Z,18.90
2018-09-28T17:59:44.147Z,19.53
2018-09-28T18:02:12.810Z,22.03
2018-09-28T18:04:41.004Z,20.47
2018-09-28T18:07:09.738Z,26.90
2018-09-28T18:09:37.920Z,24.80
2018-09-28T18:12:06.905Z,22.93
2018-09-28T18:14:35.098Z,21.13
2018-09-28T18:17:03.316Z,18.63
2018-09-28T18:19:31.685Z,22.17
2018-09-28T18:21:59.846Z,32.37
2018-09-28T18:24:28.064Z,31.67
2018-09-28T18:26:56.248Z,30.07
2018-09-28T18:29:24.486Z,26.43
2018-09-28T18:31:52.620Z,29.60
2018-09-28T18:34:20.802Z,20.97
2018-09-28T18:36:49.105Z,23.17
2018-09-28T18:39:17.363Z,29.13
2018-09-28T18:41:45.601Z,30.43
2018-09-28T18:44:13.824Z,25.70
2018-09-28T18:46:42.115Z,23.30
2018-09-28T18:49:10.317Z,24.90
2018-09-28T18:51:38.573Z,29.17
2018-09-28T18:54:06.813Z,29.37
2018-09-28T18:56:35.136Z,42.80
2018-09-28T18:59:03.395Z,43.03
2018-09-28T19:01:31.532Z,32.60
2018-09-28T19:03:59.714Z,34.90
2018-09-28T19:06:27.867Z,30.40
2018-09-28T19:08:56.084Z,25.27
2018-09-28T19:11:24.316Z,27.53
2018-09-28T19:13:52.556Z,25.83
2018-09-28T19:16:20.773Z,26.37
2018-09-28T19:18:48.918Z,28.43
2018-09-28T19:21:17.136Z,30.77
2018-09-28T19:23:45.318Z,27.97
2018-09-28T19:26:13.631Z,28.33
2018-09-28T19:28:41.798Z,29.30
2018-09-28T19:31:09.986Z,37.00
2018-09-28T19:33:38.161Z,30.00
2018-09-28T19:36:06.501Z,34.07
2018-09-28T19:38:34.726Z,26.10
2018-09-28T19:41:02.995Z,30.47
2018-09-28T19:43:31.301Z,25.90
2018-09-28T19:45:59.557Z,30.50
2018-09-28T19:48:27.709Z,29.73
2018-09-28T19:50:58.484Z,24.53
2018-09-28T19:53:26.595Z,25.93
2018-09-28T19:55:54.766Z,36.13
2018-09-28T19:58:23.055Z,33.37
2018-09-28T20:00:51.356Z,25.03
2018-09-28T20:03:19.498Z,50.77
2018-09-28T20:05:47.880Z,28.13
2018-09-28T20:08:16.066Z,18.83
2018-09-28T20:10:44.250Z,23.53
2018-09-28T20:13:12.446Z,18.50
2018-09-28T20:15:40.605Z,22.07
2018-09-28T20:18:09.023Z,25.13
2018-09-28T20:20:37.211Z,29.60
2018-09-28T20:23:05.552Z,24.37
2018-09-28T20:25:33.841Z,27.73
2018-09-28T20:28:01.999Z,23.57
2018-09-28T20:30:30.265Z,22.07
2018-09-28T20:32:58.569Z,23.80
2018-09-28T20:35:26.855Z,30.03
2018-09-28T20:37:54.989Z,34.80
2018-09-28T20:40:23.130Z,20.47
2018-09-28T20:42:51.349Z,17.20
2018-09-28T20:45:19.548Z,25.90
2018-09-28T20:47:47.777Z,25.63
2018-09-28T20:50:16.063Z,25.13
2018-09-28T20:52:44.364Z,20.03
2018-09-28T20:55:12.534Z,19.77
2018-09-28T20:57:40.802Z,24.30
2018-09-28T21:00:09.011Z,23.80
2018-09-28T21:02:37.188Z,21.57
2018-09-28T21:05:05.394Z,20.80
2018-09-28T21:07:33.642Z,23.80
2018-09-28T21:10:01.829Z,16.50
2018-09-28T21:12:30.093Z,25.07
2018-09-28T21:14:58.323Z,16.63
2018-09-28T21:17:26.586Z,15.53
2018-09-28T21:19:54.762Z,18.80
2018-09-28T21:22:22.972Z,18.17
2018-09-28T21:24:51.098Z,15.37
2018-09-28T21:27:19.247Z,17.23
2018-09-28T21:29:47.382Z,19.13
2018-09-28T21:32:15.513Z,20.80
2018-09-28T21:34:43.649Z,20.63
2018-09-28T21:37:11.776Z,16.00
2018-09-28T21:39:39.997Z,18.83
2018-09-28T21:42:08.144Z,29.07
2018-09-28T21:44:36.347Z,24.70
2018-09-28T21:47:04.455Z,15.77
2018-09-28T21:49:32.609Z,15.23
2018-09-28T21:52:00.735Z,14.77
2018-09-28T21:54:28.858Z,15.40
2018-09-28T21:56:57.114Z,12.50
2018-09-28T21:59:25.205Z,14.30
2018-09-28T22:01:53.438Z,16.20
2018-09-28T22:04:21.602Z,12.43
2018-09-28T22:06:49.844Z,16.00
2018-09-28T22:09:18.064Z,15.67
2018-09-28T22:11:46.183Z,16.27
2018-09-28T22:14:14.350Z,12.63
2018-09-28T22:16:42.522Z,13.87
2018-09-28T22:19:10.676Z,14.47
2018-09-28T22:21:38.797Z,16.40
2018-09-28T22:24:07.268Z,14.17
2018-09-28T22:26:35.403Z,17.67
2018-09-28T22:29:03.572Z,14.77
2018-09-28T22:31:31.748Z,12.47
2018-09-28T22:34:00.039Z,16.07
2018-09-28T22:36:28.157Z,12.83
2018-09-28T22:38:56.301Z,11.37
2018-09-28T22:41:24.438Z,10.67
2018-09-28T22:43:52.657Z,13.43
2018-09-28T22:46:20.726Z,12.13
2018-09-28T22:48:48.890Z,10.10
2018-09-28T22:51:17.001Z,15.37
2018-09-28T22:53:45.286Z,10.57
2018-09-28T22:56:13.388Z,11.87
2018-09-28T22:58:41.565Z,13.60
2018-09-28T23:01:09.694Z,13.20
2018-09-28T23:03:37.822Z,12.40
2018-09-28T23:06:05.954Z,11.60
2018-09-28T23:08:34.249Z,13.07
2018-09-28T23:11:02.370Z,12.77
2018-09-28T23:13:30.523Z,13.23
2018-09-28T23:15:58.665Z,13.13
2018-09-28T23:18:26.854Z,13.33
2018-09-28T23:20:54.996Z,10.10
2018-09-28T23:23:23.127Z,10.67
2018-09-28T23:25:51.227Z,11.93
2018-09-28T23:28:19.395Z,11.10
2018-09-28T23:30:47.510Z,10.93
2018-09-28T23:33:15.629Z,10.83
2018-09-28T23:35:43.754Z,9.60
2018-09-28T23:38:11.919Z,11.90
2018-09-28T23:40:40.035Z,10.93
2018-09-28T23:43:08.181Z,13.53
2018-09-28T23:45:36.391Z,13.97
2018-09-28T23:48:04.526Z,8.57
2018-09-28T23:50:32.653Z,10.87
2018-09-28T23:53:00.778Z,14.20
2018-09-28T23:55:28.934Z,11.60
2018-09-28T23:57:57.006Z,9.67
